Time;durP1;ratioP1;P1;durP2;ratioP2;P2;SDS_P1;SDS_P2;PMS_P1;PMS_P2;Temp;Humidity;BMP_temperature;BMP_pressure;BME280_temperature;BME280_humidity;BME280_pressure;Samples;Min_cycle;Max_cycle;Signal;HPM_P1;HPM_P2
2023/01/12 00:01:21;;;;;;;7.77;2.73;;;;;;;;;;5053022;28;20256;-82
2023/01/12 00:03:48;;;;;;;8.40;3.07;;;;;;;;;;5053628;28;20202;-82
2023/01/12 00:06:15;;;;;;;9.53;2.73;;;;;;;;;;5053229;28;20304;-81
2023/01/12 00:08:42;;;;;;;12.07;3.30;;;;;;;;;;5053602;28;20209;-82
2023/01/12 00:11:09;;;;;;;6.50;2.50;;;;;;;;;;5052972;28;20445;-81
2023/01/12 00:13:37;;;;;;;4.87;2.37;;;;;;;;;;5053456;28;20599;-81
2023/01/12 00:19:02;;;;;;;5.07;2.57;;;;;;;;;;4991919;28;20258;-82
2023/01/12 00:21:31;;;;;;;8.03;2.70;;;;;;;;;;5038046;28;20241;-81
2023/01/12 00:23:58;;;;;;;7.50;2.77;;;;;;;;;;5052930;28;20601;-82
2023/01/12 00:26:25;;;;;;;6.80;2.70;;;;;;;;;;5052721;28;20702;-81
2023/01/12 00:28:52;;;;;;;4.23;2.53;;;;;;;;;;5053151;28;20666;-82
2023/01/12 00:31:19;;;;;;;5.53;2.47;;;;;;;;;;5052450;28;20240;-82
2023/01/12 00:33:47;;;;;;;6.73;2.30;;;;;;;;;;5052878;28;20217;-82
2023/01/12 00:36:16;;;;;;;4.40;2.00;;;;;;;;;;5052310;28;20249;-82
2023/01/12 00:38:44;;;;;;;10.83;3.43;;;;;;;;;;5052953;28;20206;-81
2023/01/12 00:45:20;;;;;;;5.60;2.80;;;;;;;;;;5052124;28;20234;-81
2023/01/12 00:46:48;;;;;;;6.93;2.53;;;;;;;;;;4995249;28;20294;-82
2023/01/12 00:49:15;;;;;;;7.57;2.80;;;;;;;;;;5052782;28;20194;-81
2023/01/12 00:51:44;;;;;;;11.03;2.90;;;;;;;;;;5051859;28;20233;-83
2023/01/12 00:54:11;;;;;;;8.00;2.40;;;;;;;;;;5052211;28;20226;-82
2023/01/12 00:56:38;;;;;;;9.83;2.80;;;;;;;;;;5072463;23;20630;-84
2023/01/12 00:59:06;;;;;;;14.60;2.77;;;;;;;;;;5032888;28;20261;-85
2023/01/12 01:01:33;;;;;;;7.40;2.20;;;;;;;;;;5033948;28;20706;-84
2023/01/12 01:04:00;;;;;;;10.37;2.97;;;;;;;;;;5052235;28;20674;-84
2023/01/12 01:06:27;;;;;;;3.77;2.60;;;;;;;;;;5051722;28;20891;-85
2023/01/12 01:08:55;;;;;;;5.13;2.60;;;;;;;;;;5052161;28;20214;-85
2023/01/12 01:11:23;;;;;;;7.67;2.27;;;;;;;;;;5051629;28;20612;-84
2023/01/12 01:13:50;;;;;;;4.63;2.13;;;;;;;;;;5052069;28;20206;-84
2023/01/12 01:16:18;;;;;;;7.73;3.67;;;;;;;;;;5051748;28;20613;-85
2023/01/12 01:18:45;;;;;;;4.57;2.13;;;;;;;;;;5052178;28;20248;-85
2023/01/12 01:21:13;;;;;;;3.60;2.40;;;;;;;;;;5051733;28;20234;-84
2023/01/12 01:23:40;;;;;;;9.17;2.60;;;;;;;;;;5052253;28;20212;-85
2023/01/12 01:26:09;;;;;;;7.40;2.23;;;;;;;;;;5051721;28;20249;-84
2023/01/12 01:28:37;;;;;;;4.67;1.90;;;;;;;;;;5053009;28;20206;-85
2023/01/12 01:31:05;;;;;;;8.73;3.27;;;;;;;;;;5053484;28;20248;-85
2023/01/12 01:33:32;;;;;;;7.87;2.47;;;;;;;;;;5055060;28;20206;-84
2023/01/12 01:35:59;;;;;;;5.63;2.70;;;;;;;;;;5052290;28;20287;-84
2023/01/12 01:38:26;;;;;;;2.10;1.90;;;;;;;;;;5052223;28;20229;-84
2023/01/12 01:40:53;;;;;;;8.33;1.67;;;;;;;;;;5051761;28;20288;-85
2023/01/12 01:43:22;;;;;;;5.37;2.17;;;;;;;;;;5051690;28;20213;-85
2023/01/12 01:45:53;;;;;;;6.50;2.23;;;;;;;;;;5051495;28;20241;-85
2023/01/12 01:48:21;;;;;;;6.77;2.17;;;;;;;;;;5052184;28;20767;-84
2023/01/12 01:50:51;;;;;;;12.90;2.87;;;;;;;;;;5051520;28;20575;-85
2023/01/12 01:53:19;;;;;;;5.27;2.30;;;;;;;;;;5052076;28;20244;-83
2023/01/12 01:55:50;;;;;;;6.10;2.60;;;;;;;;;;5051278;28;20240;-85
2023/01/12 01:58:19;;;;;;;6.90;2.30;;;;;;;;;;5046016;28;20219;-84
2023/01/12 02:00:47;;;;;;;4.07;2.37;;;;;;;;;;5046619;28;20724;-84
2023/01/12 02:03:15;;;;;;;4.03;2.27;;;;;;;;;;5054517;28;20206;-85
2023/01/12 02:05:44;;;;;;;6.10;2.70;;;;;;;;;;5055461;28;20241;-85
2023/01/12 02:08:16;;;;;;;4.53;2.57;;;;;;;;;;5051847;28;20689;-85
2023/01/12 02:10:43;;;;;;;7.17;1.93;;;;;;;;;;5055159;28;20229;-84
2023/01/12 02:18:47;;;;;;;5.10;1.77;;;;;;;;;;5055559;28;20212;-84
2023/01/12 02:21:24;;;;;;;6.70;3.03;;;;;;;;;;5055262;28;20263;-84
2023/01/12 02:24:09;;;;;;;6.77;2.40;;;;;;;;;;5055186;28;20256;-84
2023/01/12 02:26:57;;;;;;;5.27;2.23;;;;;;;;;;5054786;28;20698;-84
2023/01/12 02:29:43;;;;;;;7.37;3.20;;;;;;;;;;5055310;28;20665;-84
2023/01/12 02:32:15;;;;;;;8.57;2.73;;;;;;;;;;5054714;28;20732;-84
2023/01/12 02:34:46;;;;;;;8.13;2.73;;;;;;;;;;5055538;28;20202;-85
2023/01/12 02:37:17;;;;;;;5.07;2.20;;;;;;;;;;5054998;28;20234;-85
2023/01/12 02:39:45;;;;;;;5.77;2.70;;;;;;;;;;5055222;28;20766;-84
2023/01/12 02:45:02;;;;;;;12.33;2.57;;;;;;;;;;5054658;28;20221;-84
2023/01/12 02:47:35;;;;;;;6.43;2.13;;;;;;;;;;5054982;28;20210;-85
2023/01/12 02:50:03;;;;;;;10.90;2.60;;;;;;;;;;5054727;28;20229;-84
2023/01/12 02:52:32;;;;;;;6.37;2.70;;;;;;;;;;5054971;28;20212;-84
2023/01/12 02:55:00;;;;;;;7.27;3.27;;;;;;;;;;5054223;28;20247;-84
2023/01/12 02:57:29;;;;;;;8.80;3.47;;;;;;;;;;5055125;28;20209;-84
2023/01/12 02:59:57;;;;;;;6.80;2.23;;;;;;;;;;5054517;28;20202;-83
2023/01/12 03:02:25;;;;;;;9.17;3.10;;;;;;;;;;5054507;28;20255;-84
2023/01/12 03:04:54;;;;;;;6.83;3.03;;;;;;;;;;5054418;28;20233;-84
2023/01/12 03:08:03;;;;;;;;;;;;;;;;;;;;;
2023/01/12 03:10:38;;;;;;;7.40;3.00;;;;;;;;;;5054026;28;20225;-84
2023/01/12 03:13:07;;;;;;;14.60;2.70;;;;;;;;;;5054359;28;20196;-84
2023/01/12 03:15:36;;;;;;;6.73;2.43;;;;;;;;;;5053330;28;20281;-84
2023/01/12 03:18:04;;;;;;;8.23;2.57;;;;;;;;;;5054365;28;20701;-85
2023/01/12 03:20:35;;;;;;;5.47;2.37;;;;;;;;;;5054264;28;20242;-85
2023/01/12 03:23:03;;;;;;;3.83;1.70;;;;;;;;;;5054336;28;20210;-84
2023/01/12 03:25:31;;;;;;;8.43;2.70;;;;;;;;;;5053858;28;20233;-86
2023/01/12 03:28:00;;;;;;;8.17;3.50;;;;;;;;;;5054551;28;20289;-86
2023/01/12 03:30:29;;;;;;;6.47;2.50;;;;;;;;;;5053714;28;20226;-86
2023/01/12 03:32:57;;;;;;;13.20;3.57;;;;;;;;;;5053873;28;20670;-86
2023/01/12 03:35:26;;;;;;;12.30;2.90;;;;;;;;;;5053913;28;20230;-85
2023/01/12 03:37:56;;;;;;;11.77;3.07;;;;;;;;;;5054293;28;20706;-85
2023/01/12 03:40:24;;;;;;;4.60;2.37;;;;;;;;;;5053772;28;20291;-85
2023/01/12 03:42:53;;;;;;;8.50;2.93;;;;;;;;;;5054099;28;20213;-85
2023/01/12 03:45:23;;;;;;;7.73;2.30;;;;;;;;;;5053426;28;20709;-85
2023/01/12 03:47:55;;;;;;;8.73;2.83;;;;;;;;;;5054251;28;20193;-85
2023/01/12 03:50:25;;;;;;;7.67;2.57;;;;;;;;;;5053319;28;20295;-84
2023/01/12 03:52:54;;;;;;;7.23;2.17;;;;;;;;;;5053443;28;20674;-84
2023/01/12 03:55:23;;;;;;;6.27;2.57;;;;;;;;;;5053162;28;20233;-84
2023/01/12 03:57:51;;;;;;;7.13;2.93;;;;;;;;;;5053632;28;20794;-84
2023/01/12 04:00:19;;;;;;;4.70;2.27;;;;;;;;;;5053531;28;20230;-85
2023/01/12 04:02:47;;;;;;;6.50;2.47;;;;;;;;;;5053651;28;20202;-84
2023/01/12 04:05:14;;;;;;;10.70;2.70;;;;;;;;;;5053140;28;20241;-85
2023/01/12 04:07:41;;;;;;;6.03;2.17;;;;;;;;;;5053665;28;20205;-85
2023/01/12 04:10:09;;;;;;;7.43;2.60;;;;;;;;;;5053306;28;20238;-84
2023/01/12 04:12:36;;;;;;;8.17;2.47;;;;;;;;;;5053490;28;20210;-85
2023/01/12 04:15:04;;;;;;;8.77;2.73;;;;;;;;;;5052919;28;20722;-84
2023/01/12 04:17:32;;;;;;;13.63;3.80;;;;;;;;;;5053497;28;20233;-84
2023/01/12 04:19:59;;;;;;;7.83;3.10;;;;;;;;;;5052890;28;20202;-84
2023/01/12 04:22:44;;;;;;;3.87;2.30;;;;;;;;;;5052863;28;20294;-84
2023/01/12 04:25:11;;;;;;;4.30;2.10;;;;;;;;;;5052727;28;20230;-84
2023/01/12 04:27:42;;;;;;;5.63;2.10;;;;;;;;;;5053648;28;20198;-84
2023/01/12 04:30:10;;;;;;;5.67;2.40;;;;;;;;;;5053008;28;20237;-84
2023/01/12 04:32:37;;;;;;;3.57;2.83;;;;;;;;;;5053081;28;20629;-85
2023/01/12 04:35:05;;;;;;;5.47;2.63;;;;;;;;;;5052617;28;21012;-84
2023/01/12 04:37:32;;;;;;;8.50;3.53;;;;;;;;;;5053461;28;20230;-84
2023/01/12 04:39:59;;;;;;;3.70;1.80;;;;;;;;;;5055173;28;20232;-85
2023/01/12 04:45:15;;;;;;;11.00;3.20;;;;;;;;;;5052274;28;20236;-85
2023/01/12 04:47:42;;;;;;;3.23;2.57;;;;;;;;;;5052718;28;20202;-85
2023/01/12 04:50:10;;;;;;;6.37;3.30;;;;;;;;;;5052493;28;20309;-85
2023/01/12 04:52:37;;;;;;;6.03;2.80;;;;;;;;;;5052755;28;20213;-84
2023/01/12 04:55:04;;;;;;;6.77;2.77;;;;;;;;;;5051966;28;20328;-84
2023/01/12 04:57:31;;;;;;;8.77;2.27;;;;;;;;;;5052724;28;20210;-84
2023/01/12 04:59:58;;;;;;;6.77;2.53;;;;;;;;;;5052063;28;20206;-84
2023/01/12 05:02:27;;;;;;;12.50;3.03;;;;;;;;;;5052466;28;20217;-84
2023/01/12 05:04:54;;;;;;;5.93;2.73;;;;;;;;;;5051826;28;20767;-84
2023/01/12 05:07:21;;;;;;;9.77;2.83;;;;;;;;;;5052597;28;20202;-84
2023/01/12 05:12:29;;;;;;;5.10;2.80;;;;;;;;;;5039243;28;20285;-84
2023/01/12 05:14:56;;;;;;;12.80;2.50;;;;;;;;;;5052337;28;20226;-84
2023/01/12 05:17:23;;;;;;;7.73;2.70;;;;;;;;;;5052061;28;20213;-84
2023/01/12 05:19:52;;;;;;;12.00;2.47;;;;;;;;;;5052036;28;20484;-83
2023/01/12 05:22:19;;;;;;;5.80;2.43;;;;;;;;;;5052401;28;20206;-83
2023/01/12 05:24:46;;;;;;;3.90;2.40;;;;;;;;;;5051908;28;20206;-83
2023/01/12 05:27:13;;;;;;;9.57;2.87;;;;;;;;;;5052055;28;20709;-84
2023/01/12 05:29:40;;;;;;;8.30;2.60;;;;;;;;;;5052479;28;20206;-84
2023/01/12 05:32:07;;;;;;;8.50;2.63;;;;;;;;;;5051436;28;20796;-84
2023/01/12 05:34:34;;;;;;;8.53;2.73;;;;;;;;;;5052295;28;20238;-84
2023/01/12 05:37:02;;;;;;;5.63;2.50;;;;;;;;;;5050882;28;20233;-84
2023/01/12 05:39:29;;;;;;;11.20;2.77;;;;;;;;;;5056607;28;20230;-83
2023/01/12 05:44:41;;;;;;;7.70;2.77;;;;;;;;;;5052217;28;20362;-84
2023/01/12 05:47:08;;;;;;;11.73;2.77;;;;;;;;;;5051467;28;20242;-84
2023/01/12 05:49:35;;;;;;;3.83;2.50;;;;;;;;;;5051899;28;20210;-84
2023/01/12 05:52:04;;;;;;;4.07;2.20;;;;;;;;;;5051106;28;20237;-84
2023/01/12 05:54:31;;;;;;;9.67;3.40;;;;;;;;;;5051516;28;20214;-84
2023/01/12 05:56:58;;;;;;;4.50;2.33;;;;;;;;;;5051320;28;20234;-84
2023/01/12 05:59:25;;;;;;;4.83;2.37;;;;;;;;;;5051517;28;20230;-84
2023/01/12 06:01:52;;;;;;;8.37;2.23;;;;;;;;;;5051230;28;20237;-84
2023/01/12 06:04:19;;;;;;;8.93;2.33;;;;;;;;;;5051486;28;20209;-84
2023/01/12 06:06:47;;;;;;;5.83;2.50;;;;;;;;;;5052209;28;20245;-84
2023/01/12 06:09:16;;;;;;;5.07;2.23;;;;;;;;;;5052919;28;20199;-84
2023/01/12 06:14:28;;;;;;;8.80;2.63;;;;;;;;;;5052007;28;20224;-82
2023/01/12 06:16:55;;;;;;;5.90;2.47;;;;;;;;;;5051306;28;20237;-81
2023/01/12 06:19:22;;;;;;;4.43;2.20;;;;;;;;;;5051924;28;20230;-82
2023/01/12 06:21:50;;;;;;;9.27;3.23;;;;;;;;;;5050864;28;20291;-82
2023/01/12 06:24:19;;;;;;;6.30;1.90;;;;;;;;;;5051735;28;20210;-82
2023/01/12 06:26:46;;;;;;;3.57;2.00;;;;;;;;;;5051208;28;20238;-82
2023/01/12 06:29:13;;;;;;;9.20;3.03;;;;;;;;;;5051498;28;20209;-82
2023/01/12 06:31:40;;;;;;;4.73;2.00;;;;;;;;;;5051183;28;20291;-83
2023/01/12 06:34:07;;;;;;;4.37;2.07;;;;;;;;;;5050797;28;20260;-82
2023/01/12 06:36:35;;;;;;;5.83;3.17;;;;;;;;;;5050677;28;20241;-82
2023/01/12 06:39:02;;;;;;;5.17;2.23;;;;;;;;;;5051538;28;20633;-83
2023/01/12 06:44:15;;;;;;;5.50;2.37;;;;;;;;;;5051111;28;20582;-82
2023/01/12 06:46:42;;;;;;;4.17;2.33;;;;;;;;;;5050534;28;20238;-82
2023/01/12 06:49:10;;;;;;;3.47;1.57;;;;;;;;;;5053524;28;20209;-82
2023/01/12 06:51:37;;;;;;;8.03;3.40;;;;;;;;;;5054401;28;20287;-83
2023/01/12 06:54:04;;;;;;;5.10;2.50;;;;;;;;;;5054735;28;20214;-82
2023/01/12 06:56:32;;;;;;;5.13;2.10;;;;;;;;;;5074511;23;20677;-75
2023/01/12 06:58:59;;;;;;;2.47;1.90;;;;;;;;;;5054060;28;20264;-75
2023/01/12 07:01:26;;;;;;;8.67;3.17;;;;;;;;;;5053956;28;20238;-74
2023/01/12 07:03:53;;;;;;;3.40;1.97;;;;;;;;;;5053973;28;20206;-75
2023/01/12 07:06:21;;;;;;;6.37;2.27;;;;;;;;;;5062217;28;20233;-75
2023/01/12 07:08:48;;;;;;;10.27;2.30;;;;;;;;;;5074098;28;20653;-75
2023/01/12 07:11:15;;;;;;;6.47;2.67;;;;;;;;;;5073625;28;20252;-75
2023/01/12 07:13:44;;;;;;;5.43;2.03;;;;;;;;;;5073982;28;20217;-75
2023/01/12 07:16:11;;;;;;;8.50;1.97;;;;;;;;;;5073690;28;20237;-75
2023/01/12 07:18:38;;;;;;;7.77;2.53;;;;;;;;;;5073970;28;20221;-75
2023/01/12 07:21:06;;;;;;;6.97;2.23;;;;;;;;;;5073550;28;20240;-75
2023/01/12 07:23:33;;;;;;;6.67;2.80;;;;;;;;;;5073723;28;20679;-75
2023/01/12 07:26:00;;;;;;;8.90;2.17;;;;;;;;;;5073686;28;20268;-75
2023/01/12 07:28:30;;;;;;;7.83;2.83;;;;;;;;;;5074040;28;20208;-77
2023/01/12 07:31:01;;;;;;;5.97;2.20;;;;;;;;;;5073531;28;20225;-77
2023/01/12 07:33:28;;;;;;;5.30;2.57;;;;;;;;;;5073819;28;20237;-78
2023/01/12 07:35:58;;;;;;;8.37;3.23;;;;;;;;;;5073235;28;20237;-78
2023/01/12 07:38:25;;;;;;;5.03;3.13;;;;;;;;;;5073644;28;20225;-77
2023/01/12 07:40:52;;;;;;;5.80;2.70;;;;;;;;;;5073376;28;20237;-77
2023/01/12 07:43:19;;;;;;;5.90;2.40;;;;;;;;;;5073501;28;20201;-78
2023/01/12 07:45:46;;;;;;;10.37;3.17;;;;;;;;;;5073184;28;20237;-77
2023/01/12 07:48:15;;;;;;;8.83;2.83;;;;;;;;;;5073679;28;20213;-77
2023/01/12 07:50:42;;;;;;;4.60;3.00;;;;;;;;;;5073179;28;20728;-78
2023/01/12 07:53:09;;;;;;;5.67;2.50;;;;;;;;;;5073081;28;20205;-77
2023/01/12 07:55:38;;;;;;;7.13;2.37;;;;;;;;;;5072788;28;20696;-78
2023/01/12 07:58:07;;;;;;;5.97;2.43;;;;;;;;;;5073243;28;20563;-78
2023/01/12 08:00:34;;;;;;;4.70;2.83;;;;;;;;;;5072600;28;20348;-78
2023/01/12 08:03:05;;;;;;;6.10;2.30;;;;;;;;;;5058849;28;20678;-78
2023/01/12 08:05:34;;;;;;;2.43;1.80;;;;;;;;;;5052819;28;20585;-77
2023/01/12 08:08:01;;;;;;;5.43;2.00;;;;;;;;;;5053104;28;20205;-78
2023/01/12 08:10:28;;;;;;;5.07;2.40;;;;;;;;;;5052691;28;20708;-78
2023/01/12 08:12:55;;;;;;;6.27;2.67;;;;;;;;;;5052813;28;20213;-78
2023/01/12 08:15:23;;;;;;;7.67;2.77;;;;;;;;;;5052631;28;20229;-78
2023/01/12 08:17:52;;;;;;;4.73;2.53;;;;;;;;;;5053064;28;20206;-78
2023/01/12 08:20:21;;;;;;;4.67;2.57;;;;;;;;;;5052242;28;20245;-78
2023/01/12 08:22:51;;;;;;;3.87;2.27;;;;;;;;;;5052753;28;20213;-78
2023/01/12 08:25:19;;;;;;;3.00;2.23;;;;;;;;;;5052648;28;20261;-78
2023/01/12 08:27:47;;;;;;;8.60;2.50;;;;;;;;;;5052871;28;20213;-78
2023/01/12 08:30:16;;;;;;;6.90;2.70;;;;;;;;;;5052268;28;20230;-78
2023/01/12 08:32:43;;;;;;;5.83;2.10;;;;;;;;;;5052682;28;20696;-78
2023/01/12 08:35:12;;;;;;;5.90;2.40;;;;;;;;;;5052121;28;20240;-78
2023/01/12 08:37:39;;;;;;;6.73;2.47;;;;;;;;;;5052679;28;20574;-78
2023/01/12 08:40:09;;;;;;;3.43;1.97;;;;;;;;;;5052045;28;20800;-78
2023/01/12 08:42:36;;;;;;;6.47;2.63;;;;;;;;;;5052559;28;20556;-78
2023/01/12 08:45:03;;;;;;;5.20;1.83;;;;;;;;;;5052146;28;20210;-78
2023/01/12 08:47:30;;;;;;;3.13;2.10;;;;;;;;;;5052555;28;20230;-78
2023/01/12 08:49:59;;;;;;;3.60;2.00;;;;;;;;;;5052218;28;20202;-78
2023/01/12 08:52:28;;;;;;;2.17;1.63;;;;;;;;;;5052451;28;20554;-78
2023/01/12 08:54:55;;;;;;;3.43;2.33;;;;;;;;;;5052220;28;20744;-78
2023/01/12 08:57:23;;;;;;;5.37;2.23;;;;;;;;;;5052112;28;20241;-77
2023/01/12 08:59:50;;;;;;;5.30;2.50;;;;;;;;;;5051753;28;20233;-78
2023/01/12 09:02:17;;;;;;;4.87;2.10;;;;;;;;;;5052068;28;20202;-77
2023/01/12 09:04:44;;;;;;;3.27;2.30;;;;;;;;;;5051828;28;20206;-78
2023/01/12 09:07:12;;;;;;;6.73;2.03;;;;;;;;;;5052073;28;20586;-78
2023/01/12 09:09:39;;;;;;;5.50;2.43;;;;;;;;;;5052269;28;20628;-78
2023/01/12 09:12:07;;;;;;;2.93;2.20;;;;;;;;;;5050504;28;20735;-78
2023/01/12 09:14:37;;;;;;;4.17;2.20;;;;;;;;;;5051996;28;20670;-77
2023/01/12 09:17:04;;;;;;;4.30;2.50;;;;;;;;;;5051448;28;20245;-77
2023/01/12 09:19:31;;;;;;;6.07;2.80;;;;;;;;;;5052402;28;20629;-77
2023/01/12 09:21:58;;;;;;;2.37;2.03;;;;;;;;;;5051526;28;20741;-77
2023/01/12 09:24:26;;;;;;;4.03;1.90;;;;;;;;;;5051915;28;20210;-78
2023/01/12 09:26:53;;;;;;;2.47;1.70;;;;;;;;;;5051649;28;20237;-78
2023/01/12 09:29:20;;;;;;;1.93;1.73;;;;;;;;;;5052365;28;20202;-77
2023/01/12 09:31:48;;;;;;;3.60;2.47;;;;;;;;;;5051725;28;20233;-78
2023/01/12 09:34:15;;;;;;;5.20;2.10;;;;;;;;;;5051717;28;20206;-78
2023/01/12 09:36:43;;;;;;;4.63;2.97;;;;;;;;;;5051373;28;20241;-78
2023/01/12 09:39:14;;;;;;;6.63;1.60;;;;;;;;;;5051940;28;20898;-78
2023/01/12 09:47:22;;;;;;;3.20;1.83;;;;;;;;;;5051482;28;20278;-78
2023/01/12 09:49:51;;;;;;;4.70;1.93;;;;;;;;;;5051242;28;20662;-78
2023/01/12 09:52:20;;;;;;;4.60;2.10;;;;;;;;;;5051535;28;20210;-78
2023/01/12 09:54:48;;;;;;;8.07;2.70;;;;;;;;;;5051459;28;20244;-78
2023/01/12 09:57:30;;;;;;;3.57;2.20;;;;;;;;;;5051383;28;20234;-78
2023/01/12 09:59:59;;;;;;;3.97;2.30;;;;;;;;;;5051396;28;20221;-78
2023/01/12 10:02:28;;;;;;;5.10;2.50;;;;;;;;;;5061060;28;20201;-77
2023/01/12 10:04:57;;;;;;;2.67;2.07;;;;;;;;;;5071295;28;20201;-78
2023/01/12 10:07:24;;;;;;;4.53;1.97;;;;;;;;;;5071344;28;20233;-78
2023/01/12 10:09:51;;;;;;;4.03;2.17;;;;;;;;;;5071415;28;20595;-78
2023/01/12 10:12:25;;;;;;;2.50;2.03;;;;;;;;;;5071539;28;20212;-78
2023/01/12 10:15:07;;;;;;;3.57;2.20;;;;;;;;;;5071066;28;20186;-78
2023/01/12 10:17:41;;;;;;;3.97;2.40;;;;;;;;;;5071579;28;20229;-78
2023/01/12 10:20:14;;;;;;;3.80;2.10;;;;;;;;;;5071167;28;20236;-78
2023/01/12 10:22:44;;;;;;;4.80;2.53;;;;;;;;;;5071889;28;20202;-78
2023/01/12 10:25:15;;;;;;;3.40;1.93;;;;;;;;;;5075377;28;20257;-75
2023/01/12 10:27:43;;;;;;;3.50;2.37;;;;;;;;;;5075494;28;20225;-75
2023/01/12 10:30:13;;;;;;;4.23;2.33;;;;;;;;;;5075545;28;20232;-75
2023/01/12 10:32:41;;;;;;;4.23;2.57;;;;;;;;;;5075779;28;20666;-76
2023/01/12 10:35:13;;;;;;;5.70;2.43;;;;;;;;;;5074675;28;20240;-76
2023/01/12 10:37:44;;;;;;;3.00;2.00;;;;;;;;;;5075154;28;20222;-76
2023/01/12 10:40:19;;;;;;;2.97;1.90;;;;;;;;;;5074429;28;20240;-76
2023/01/12 10:45:36;;;;;;;2.43;1.80;;;;;;;;;;5074523;28;20254;-75
2023/01/12 10:48:16;;;;;;;4.57;1.70;;;;;;;;;;5074924;28;20687;-76
2023/01/12 10:50:43;;;;;;;7.53;1.90;;;;;;;;;;5074572;28;20229;-76
2023/01/12 10:53:14;;;;;;;3.37;2.00;;;;;;;;;;5074708;28;20213;-76
2023/01/12 10:55:42;;;;;;;3.27;2.57;;;;;;;;;;5074583;28;20736;-77
2023/01/12 10:58:20;;;;;;;3.47;1.83;;;;;;;;;;5075156;28;20197;-76
2023/01/12 11:00:48;;;;;;;1.67;1.57;;;;;;;;;;5074754;28;20267;-76
2023/01/12 11:03:33;;;;;;;3.80;1.80;;;;;;;;;;5058395;28;20205;-76
2023/01/12 11:06:15;;;;;;;6.60;2.40;;;;;;;;;;5054019;28;20259;-76
2023/01/12 11:08:42;;;;;;;2.53;2.27;;;;;;;;;;5054605;28;20233;-76
2023/01/12 11:11:17;;;;;;;1.70;1.60;;;;;;;;;;5054128;28;20708;-80
2023/01/12 11:13:45;;;;;;;5.33;2.07;;;;;;;;;;5054370;28;20205;-76
2023/01/12 11:16:14;;;;;;;5.80;2.17;;;;;;;;;;5053705;28;20765;-76
2023/01/12 11:18:46;;;;;;;1.90;1.70;;;;;;;;;;5054292;28;20232;-76
2023/01/12 11:21:15;;;;;;;1.50;1.40;;;;;;;;;;5053900;28;20238;-77
2023/01/12 11:23:46;;;;;;;1.53;1.43;;;;;;;;;;5054160;28;20206;-76
2023/01/12 11:26:16;;;;;;;2.33;1.70;;;;;;;;;;5053630;28;20240;-76
2023/01/12 11:28:45;;;;;;;3.93;1.60;;;;;;;;;;5054125;28;20201;-76
2023/01/12 11:31:14;;;;;;;4.20;1.57;;;;;;;;;;5053452;28;20264;-76
2023/01/12 11:33:44;;;;;;;2.37;1.60;;;;;;;;;;5053997;28;20213;-76
2023/01/12 11:36:12;;;;;;;2.03;1.60;;;;;;;;;;5052209;28;20240;-76
2023/01/12 11:38:41;;;;;;;2.13;1.93;;;;;;;;;;5053975;28;20209;-75
2023/01/12 11:41:10;;;;;;;1.60;1.50;;;;;;;;;;5053198;28;20724;-76
2023/01/12 11:43:50;;;;;;;3.43;1.70;;;;;;;;;;5053666;28;20209;-76
2023/01/12 11:46:22;;;;;;;3.73;1.80;;;;;;;;;;5053424;28;20241;-76
2023/01/12 11:48:52;;;;;;;1.97;1.37;;;;;;;;;;5053527;28;20214;-76
2023/01/12 11:51:19;;;;;;;4.47;1.60;;;;;;;;;;5053089;28;20233;-76
2023/01/12 11:53:46;;;;;;;4.27;2.13;;;;;;;;;;5053188;28;20574;-76
2023/01/12 11:56:24;;;;;;;6.17;1.90;;;;;;;;;;5052888;28;20238;-77
2023/01/12 11:58:56;;;;;;;1.50;1.40;;;;;;;;;;5053428;28;20608;-76
2023/01/12 12:01:26;;;;;;;6.57;2.63;;;;;;;;;;5053526;28;20586;-76
2023/01/12 12:03:58;;;;;;;2.17;1.70;;;;;;;;;;5073020;28;20205;-76
2023/01/12 12:06:33;;;;;;;1.30;1.30;;;;;;;;;;5072990;28;20310;-76
2023/01/12 12:09:05;;;;;;;1.43;1.37;;;;;;;;;;5073839;28;20177;-76
2023/01/12 12:11:35;;;;;;;1.80;1.67;;;;;;;;;;5072902;28;20583;-76
2023/01/12 12:14:09;;;;;;;2.20;1.30;;;;;;;;;;5073057;28;20213;-76
2023/01/12 12:16:39;;;;;;;2.23;1.30;;;;;;;;;;5072881;28;20237;-76
2023/01/12 12:19:21;;;;;;;2.93;2.20;;;;;;;;;;5073122;28;20689;-77
2023/01/12 12:21:50;;;;;;;1.90;1.27;;;;;;;;;;5072789;28;20617;-76
2023/01/12 12:24:27;;;;;;;1.20;1.20;;;;;;;;;;5072766;28;20578;-76
2023/01/12 12:26:58;;;;;;;1.60;1.50;;;;;;;;;;5072563;28;20240;-76
2023/01/12 12:29:34;;;;;;;2.10;1.80;;;;;;;;;;5073025;28;20653;-76
2023/01/12 12:32:05;;;;;;;1.90;1.70;;;;;;;;;;5072459;28;20243;-76
2023/01/12 12:34:50;;;;;;;2.53;1.50;;;;;;;;;;5073628;28;20216;-76
2023/01/12 12:37:21;;;;;;;1.77;1.30;;;;;;;;;;5072608;28;20239;-77
2023/01/12 12:39:50;;;;;;;1.80;1.30;;;;;;;;;;5072222;28;20201;-77
2023/01/12 12:45:18;;;;;;;3.03;1.70;;;;;;;;;;5072214;28;20236;-76
2023/01/12 12:47:53;;;;;;;3.53;1.50;;;;;;;;;;5072113;28;20237;-77
2023/01/12 12:50:24;;;;;;;4.13;1.37;;;;;;;;;;5071945;28;20255;-76
2023/01/12 12:53:01;;;;;;;1.10;1.10;;;;;;;;;;5072301;28;20197;-76
2023/01/12 12:55:28;;;;;;;1.10;1.10;;;;;;;;;;5071696;28;20224;-76
2023/01/12 12:57:58;;;;;;;1.40;1.30;;;;;;;;;;5085124;23;20256;-82
2023/01/12 13:00:30;;;;;;;1.20;1.10;;;;;;;;;;5072548;28;20233;-82
2023/01/12 13:02:58;;;;;;;1.30;1.20;;;;;;;;;;5072972;28;20212;-82
2023/01/12 13:05:43;;;;;;;2.43;1.40;;;;;;;;;;5072877;28;20229;-83
2023/01/12 13:08:18;;;;;;;1.20;1.20;;;;;;;;;;5053147;28;20228;-82
2023/01/12 13:10:50;;;;;;;1.50;1.40;;;;;;;;;;5052379;28;20260;-82
2023/01/12 13:13:25;;;;;;;1.40;1.30;;;;;;;;;;5052678;28;20212;-81
2023/01/12 13:16:12;;;;;;;1.53;1.43;;;;;;;;;;5053333;28;20286;-82
2023/01/12 13:19:03;;;;;;;1.10;1.10;;;;;;;;;;5053313;28;20202;-82
2023/01/12 13:21:31;;;;;;;1.43;1.20;;;;;;;;;;5052670;28;20261;-82
2023/01/12 13:24:25;;;;;;;1.00;1.00;;;;;;;;;;5053896;28;20210;-82
2023/01/12 13:26:54;;;;;;;1.00;1.00;;;;;;;;;;5017280;28;20260;-82
2023/01/12 13:29:40;;;;;;;1.40;1.20;;;;;;;;;;5053868;28;20206;-81
2023/01/12 13:32:26;;;;;;;1.47;1.37;;;;;;;;;;5052622;28;20248;-82
2023/01/12 13:34:54;;;;;;;1.60;1.50;;;;;;;;;;5053224;28;20209;-81
2023/01/12 13:37:24;;;;;;;1.50;1.40;;;;;;;;;;5054016;28;20229;-81
2023/01/12 13:39:52;;;;;;;1.30;1.30;;;;;;;;;;5054143;28;20689;-81
2023/01/12 13:45:10;;;;;;;1.47;1.37;;;;;;;;;;5054248;28;20244;-82
2023/01/12 13:47:37;;;;;;;1.50;1.40;;;;;;;;;;5053441;28;20229;-82
2023/01/12 13:50:07;;;;;;;1.57;1.40;;;;;;;;;;5053241;28;20236;-82
2023/01/12 13:52:36;;;;;;;1.63;1.53;;;;;;;;;;5053033;28;20238;-82
2023/01/12 13:55:18;;;;;;;1.20;1.20;;;;;;;;;;5051813;28;20210;-82
2023/01/12 13:57:55;;;;;;;2.00;1.70;;;;;;;;;;5051938;28;20237;-82
2023/01/12 14:00:23;;;;;;;1.20;1.10;;;;;;;;;;5057835;28;20332;-82
2023/01/12 14:02:51;;;;;;;1.43;1.23;;;;;;;;;;5056778;28;20198;-82
2023/01/12 14:05:33;;;;;;;2.10;1.40;;;;;;;;;;5058545;28;20247;-82
2023/01/12 14:08:08;;;;;;;2.10;1.93;;;;;;;;;;5041087;28;20221;-81
2023/01/12 14:10:38;;;;;;;1.70;1.60;;;;;;;;;;5056044;28;20229;-82
2023/01/12 14:13:20;;;;;;;1.40;1.30;;;;;;;;;;5056089;28;20264;-82
2023/01/12 14:18:41;;;;;;;1.50;1.43;;;;;;;;;;5056544;28;20197;-82
2023/01/12 14:21:19;;;;;;;5.63;2.00;;;;;;;;;;5056203;28;20875;-82
2023/01/12 14:23:48;;;;;;;1.50;1.40;;;;;;;;;;5056475;28;20194;-82
2023/01/12 14:26:21;;;;;;;1.33;1.33;;;;;;;;;;5055491;28;20250;-82
2023/01/12 14:28:49;;;;;;;5.60;1.40;;;;;;;;;;5056169;28;20190;-82
2023/01/12 14:31:18;;;;;;;1.60;1.50;;;;;;;;;;5055412;28;20234;-82
2023/01/12 14:33:49;;;;;;;1.60;1.50;;;;;;;;;;5056185;28;20213;-82
2023/01/12 14:36:18;;;;;;;1.13;1.13;;;;;;;;;;5055578;28;20245;-82
2023/01/12 14:38:45;;;;;;;1.50;1.40;;;;;;;;;;5056540;28;20586;-82
2023/01/12 14:46:46;;;;;;;2.27;1.57;;;;;;;;;;5055174;28;20261;-82
2023/01/12 14:49:19;;;;;;;1.43;1.43;;;;;;;;;;5056139;28;20210;-82
2023/01/12 14:51:51;;;;;;;1.20;1.20;;;;;;;;;;5055474;28;20230;-82
2023/01/12 14:54:19;;;;;;;2.47;1.90;;;;;;;;;;5056138;28;20187;-82
2023/01/12 14:56:55;;;;;;;5.13;2.20;;;;;;;;;;5054986;28;20299;-82
2023/01/12 14:59:24;;;;;;;1.50;1.40;;;;;;;;;;5055485;28;20235;-82
2023/01/12 15:01:51;;;;;;;1.33;1.33;;;;;;;;;;5054788;28;20287;-82
2023/01/12 15:04:20;;;;;;;1.50;1.40;;;;;;;;;;5055093;28;20205;-82
2023/01/12 15:06:47;;;;;;;1.20;1.20;;;;;;;;;;5054953;28;20241;-82
2023/01/12 15:09:25;;;;;;;2.07;1.83;;;;;;;;;;5055263;28;20246;-83
2023/01/12 15:11:54;;;;;;;2.20;1.80;;;;;;;;;;5054287;28;20258;-82
2023/01/12 15:14:23;;;;;;;1.70;1.60;;;;;;;;;;5055340;28;20234;-82
2023/01/12 15:27:58;;;;;;;1.53;1.43;;;;;;;;;;5055830;28;20256;-82
2023/01/12 15:30:25;;;;;;;3.73;1.73;;;;;;;;;;5054662;28;20245;-82
2023/01/12 15:32:53;;;;;;;1.50;1.40;;;;;;;;;;5054966;28;20209;-82
2023/01/12 15:35:22;;;;;;;1.53;1.53;;;;;;;;;;5054298;28;20283;-82
2023/01/12 15:37:49;;;;;;;1.70;1.60;;;;;;;;;;5055459;28;20230;-81
2023/01/12 15:40:17;;;;;;;1.63;1.53;;;;;;;;;;5054813;28;20567;-82
2023/01/12 15:42:44;;;;;;;2.00;1.63;;;;;;;;;;5055380;28;20599;-82
2023/01/12 15:45:18;;;;;;;1.60;1.50;;;;;;;;;;5054421;28;20238;-81
2023/01/12 15:47:45;;;;;;;2.60;1.40;;;;;;;;;;5055377;28;20230;-82
2023/01/12 15:50:12;;;;;;;2.53;1.57;;;;;;;;;;5054510;28;20237;-82
2023/01/12 15:52:39;;;;;;;2.40;1.83;;;;;;;;;;5055078;28;20202;-82
2023/01/12 15:55:06;;;;;;;1.53;1.43;;;;;;;;;;5054270;28;20276;-81
2023/01/12 15:57:34;;;;;;;2.47;1.73;;;;;;;;;;5054545;28;20718;-82
2023/01/12 16:00:01;;;;;;;2.67;1.53;;;;;;;;;;5054222;28;20670;-81